createdAt,value
2022-12-08T00:00:34.978Z,2.53
2022-12-08T00:05:55.577Z,2.75
2022-12-08T00:10:58.009Z,2.67
2022-12-08T00:16:00.977Z,2.35
2022-12-08T00:21:03.649Z,2.69
2022-12-08T00:26:05.964Z,2.31
2022-12-08T00:31:10.282Z,2.21
2022-12-08T00:36:14.427Z,2.15
2022-12-08T00:41:40.187Z,1.67
2022-12-08T00:46:43.048Z,1.67
2022-12-08T00:51:45.090Z,1.60
2022-12-08T00:56:47.065Z,1.83
2022-12-08T01:01:49.212Z,1.58
2022-12-08T01:06:51.950Z,1.62
2022-12-08T01:11:53.947Z,2.35
2022-12-08T01:16:56.047Z,2.54
2022-12-08T01:21:57.995Z,1.35
2022-12-08T01:26:59.941Z,2.19
2022-12-08T01:32:02.107Z,2.27
2022-12-08T01:37:04.099Z,1.75
2022-12-08T01:42:06.144Z,2.31
2022-12-08T01:47:08.906Z,2.08
2022-12-08T01:52:28.811Z,2.57
2022-12-08T01:58:00.748Z,2.11
2022-12-08T02:03:07.129Z,2.19
2022-12-08T02:08:12.801Z,1.82
2022-12-08T02:13:17.966Z,1.29
2022-12-08T02:18:22.544Z,1.74
2022-12-08T02:23:50.583Z,2.39
2022-12-08T02:29:05.274Z,1.59
2022-12-08T02:34:28.568Z,1.64
2022-12-08T02:39:47.079Z,1.18
2022-12-08T02:44:57.352Z,1.27
2022-12-08T02:49:59.303Z,0.77
2022-12-08T02:55:11.911Z,1.54
2022-12-08T03:00:48.823Z,0.45
2022-12-08T03:05:53.928Z,0.19
2022-12-08T03:11:15.246Z,0.89
2022-12-08T03:16:23.883Z,-0.21
2022-12-08T03:21:27.004Z,-1.45
2022-12-08T03:26:43.404Z,-0.80
2022-12-08T03:31:58.227Z,-1.03
2022-12-08T03:37:02.283Z,-0.07
2022-12-08T03:42:04.306Z,-1.23
2022-12-08T03:47:06.287Z,-0.48
2022-12-08T03:52:08.241Z,0.27
2022-12-08T03:57:10.235Z,0.67
2022-12-08T04:02:12.258Z,0.28
2022-12-08T04:07:14.234Z,0.26
2022-12-08T04:12:16.329Z,0.57
2022-12-08T04:17:18.231Z,0.31
2022-12-08T04:22:20.200Z,-1.31
2022-12-08T04:27:22.383Z,-3.01
2022-12-08T04:32:24.300Z,-2.79
2022-12-08T04:37:26.238Z,-1.75
2022-12-08T04:42:28.231Z,-1.18
2022-12-08T04:47:30.257Z,-2.10
2022-12-08T04:52:32.414Z,-1.84
2022-12-08T04:57:34.677Z,-2.42
2022-12-08T05:02:37.701Z,-1.03
2022-12-08T05:07:39.849Z,-0.81
2022-12-08T05:12:42.040Z,-0.48
2022-12-08T05:17:44.039Z,-0.38
2022-12-08T05:22:46.009Z,-0.25
2022-12-08T05:27:48.052Z,-0.19
2022-12-08T05:32:50.197Z,-0.34
2022-12-08T05:37:54.019Z,-0.20
2022-12-08T05:42:56.037Z,-0.63
2022-12-08T05:47:58.110Z,-0.21
2022-12-08T05:53:00.101Z,-0.64
2022-12-08T05:58:11.973Z,-1.33
2022-12-08T06:03:19.826Z,-1.25
2022-12-08T06:08:21.999Z,-0.64
2022-12-08T06:13:24.229Z,-1.37
2022-12-08T06:18:31.151Z,-1.23
2022-12-08T06:23:35.413Z,-0.80
2022-12-08T06:28:38.036Z,-0.67
2022-12-08T06:33:40.002Z,-0.90
2022-12-08T06:38:43.784Z,-1.20
2022-12-08T06:43:46.297Z,-0.83
2022-12-08T06:48:48.952Z,-0.78
2022-12-08T06:53:50.924Z,-1.09
2022-12-08T06:58:53.278Z,-2.09
2022-12-08T07:03:55.349Z,-1.16
2022-12-08T07:08:57.278Z,-1.16
2022-12-08T07:13:59.308Z,-1.09
2022-12-08T07:19:01.498Z,-1.42
2022-12-08T07:24:03.529Z,-1.31
2022-12-08T07:29:05.622Z,-1.16
2022-12-08T07:34:07.702Z,-1.30
2022-12-08T07:39:09.730Z,-1.24
2022-12-08T07:44:11.720Z,-1.02
2022-12-08T07:49:14.028Z,-0.81
2022-12-08T07:54:16.000Z,-0.86
2022-12-08T07:59:17.956Z,-0.70
2022-12-08T08:04:19.979Z,-0.68
2022-12-08T08:09:21.963Z,-0.68
2022-12-08T08:14:24.018Z,-0.95
2022-12-08T08:19:26.030Z,-1.14
2022-12-08T08:24:27.969Z,-0.92
2022-12-08T08:29:29.923Z,-1.06
2022-12-08T08:34:32.677Z,-0.77
2022-12-08T08:39:35.510Z,-0.58
2022-12-08T08:44:39.042Z,-0.73
2022-12-08T08:49:42.064Z,-0.72
2022-12-08T08:54:44.024Z,-1.91
2022-12-08T08:59:45.936Z,-1.78
2022-12-08T09:04:48.417Z,-1.02
2022-12-08T09:09:51.235Z,-0.83
2022-12-08T09:14:53.289Z,-0.70
2022-12-08T09:19:56.016Z,-0.72
2022-12-08T09:24:57.994Z,-1.32
2022-12-08T09:29:59.966Z,-0.88
2022-12-08T09:35:01.895Z,-1.02
2022-12-08T09:40:07.419Z,-0.29
2022-12-08T09:45:16.355Z,-0.04
2022-12-08T09:50:30.190Z,-2.41
2022-12-08T09:55:52.270Z,-1.75
2022-12-08T10:00:55.279Z,-1.15
2022-12-08T10:06:12.458Z,-0.61
2022-12-08T10:11:26.700Z,0.43
2022-12-08T10:16:41.895Z,1.70
2022-12-08T10:21:45.532Z,-1.65
2022-12-08T10:26:49.554Z,0.81
2022-12-08T10:31:51.576Z,1.45
2022-12-08T10:36:57.844Z,-2.90
2022-12-08T10:42:15.094Z,-2.78
2022-12-08T10:47:21.839Z,-2.18
2022-12-08T10:52:25.088Z,-5.01
2022-12-08T10:57:27.081Z,-2.21
2022-12-08T11:02:29.111Z,-5.24
2022-12-08T11:07:31.144Z,-4.98
2022-12-08T11:12:33.525Z,-5.10
2022-12-08T11:17:40.585Z,-3.60
2022-12-08T11:22:44.830Z,-4.36
2022-12-08T11:27:49.669Z,-3.71
2022-12-08T11:32:57.375Z,-4.58
2022-12-08T11:38:22.293Z,-3.67
2022-12-08T11:44:03.395Z,-1.47
2022-12-08T11:49:11.151Z,-2.98
2022-12-08T11:54:28.895Z,-3.82
2022-12-08T11:59:46.132Z,-4.03
2022-12-08T12:05:02.874Z,-3.16
2022-12-08T12:10:39.745Z,-2.84
2022-12-08T12:16:03.123Z,0.21
2022-12-08T12:21:18.448Z,-0.64
2022-12-08T12:26:24.135Z,-1.78
2022-12-08T12:31:33.851Z,-1.95
2022-12-08T12:36:52.425Z,0.38
2022-12-08T12:41:58.272Z,-1.80
2022-12-08T12:47:02.291Z,-2.15
2022-12-08T12:52:10.239Z,-0.30
2022-12-08T12:57:12.091Z,-1.82
2022-12-08T13:02:31.239Z,-2.05
2022-12-08T13:07:41.079Z,-2.10
2022-12-08T13:12:44.852Z,1.62
2022-12-08T13:17:49.313Z,0.01
2022-12-08T13:22:54.075Z,2.36
2022-12-08T13:27:56.020Z,3.34
2022-12-08T13:33:18.737Z,3.68
2022-12-08T13:38:26.451Z,4.62
2022-12-08T13:43:55.635Z,5.16
2022-12-08T13:50:49.572Z,5.10
2022-12-08T14:00:02.777Z,5.16
2022-12-08T14:05:18.701Z,6.14
2022-12-08T14:10:31.971Z,5.06
2022-12-08T14:15:38.361Z,5.67
2022-12-08T14:21:11.962Z,4.30
2022-12-08T14:26:06.556Z,3.64
2022-12-08T14:31:08.725Z,2.47
2022-12-08T14:36:14.632Z,4.74
2022-12-08T14:41:16.584Z,5.33
2022-12-08T14:46:23.512Z,5.79
2022-12-08T14:51:33.315Z,0.36
2022-12-08T14:56:41.199Z,2.08
2022-12-08T15:01:44.556Z,3.05
2022-12-08T15:07:21.457Z,4.43
2022-12-08T15:12:27.410Z,4.51
2022-12-08T15:17:32.078Z,4.06
2022-12-08T15:22:34.031Z,3.53
2022-12-08T15:27:46.942Z,3.75
2022-12-08T15:32:54.171Z,4.74
2022-12-08T15:37:56.347Z,2.98
2022-12-08T15:42:58.244Z,4.28
2022-12-08T15:48:00.983Z,3.03
2022-12-08T15:53:02.983Z,4.66
2022-12-08T15:58:51.795Z,3.94
2022-12-08T16:09:00.640Z,3.74
2022-12-08T16:14:48.708Z,3.81
2022-12-08T16:19:34.828Z,4.51
2022-12-08T16:24:36.789Z,1.58
2022-12-08T16:29:38.948Z,2.80
2022-12-08T16:34:41.531Z,3.61
2022-12-08T16:39:45.984Z,3.82
2022-12-08T16:44:48.220Z,3.56
2022-12-08T16:49:50.124Z,3.35
2022-12-08T16:54:52.191Z,4.23
2022-12-08T16:59:54.193Z,3.81
2022-12-08T17:04:56.224Z,3.54
2022-12-08T17:09:58.871Z,3.51
2022-12-08T17:15:03.118Z,3.05
2022-12-08T17:20:08.399Z,4.20
2022-12-08T17:25:11.021Z,4.61
2022-12-08T17:30:15.721Z,3.68
2022-12-08T17:35:17.878Z,3.80
2022-12-08T17:40:19.891Z,4.00
2022-12-08T17:45:21.863Z,3.84
2022-12-08T17:50:23.858Z,3.92
2022-12-08T17:55:25.859Z,3.75
2022-12-08T18:00:28.173Z,3.53
2022-12-08T18:05:31.091Z,4.17
2022-12-08T18:10:33.144Z,3.41
2022-12-08T18:15:39.205Z,3.98
2022-12-08T18:20:41.457Z,3.53
2022-12-08T18:25:44.116Z,3.03
2022-12-08T18:30:46.338Z,2.96
2022-12-08T18:35:48.473Z,3.03
2022-12-08T18:40:50.475Z,3.56
2022-12-08T18:46:01.483Z,3.33
2022-12-08T18:51:04.148Z,3.16
2022-12-08T18:56:09.724Z,3.64
2022-12-08T19:01:15.678Z,3.64
2022-12-08T19:06:20.011Z,4.15
2022-12-08T19:11:25.632Z,3.57
2022-12-08T19:16:27.885Z,3.45
2022-12-08T19:21:30.605Z,2.78
2022-12-08T19:26:32.865Z,3.63
2022-12-08T19:31:35.170Z,3.88
2022-12-08T19:36:42.331Z,3.41
2022-12-08T19:42:03.747Z,3.80
2022-12-08T19:47:05.994Z,3.66
2022-12-08T19:52:08.681Z,4.06
2022-12-08T19:57:11.653Z,2.84
2022-12-08T20:02:13.765Z,2.23
2022-12-08T20:07:15.868Z,2.86
2022-12-08T20:12:17.932Z,3.94
2022-12-08T20:17:20.946Z,3.86
2022-12-08T20:22:23.032Z,3.46
2022-12-08T20:27:25.452Z,4.10
2022-12-08T20:32:27.583Z,3.93
2022-12-08T20:37:29.578Z,2.97
2022-12-08T20:42:31.707Z,-1.87
2022-12-08T20:47:33.718Z,0.37
2022-12-08T20:52:37.912Z,1.59
2022-12-08T20:57:40.171Z,0.16
2022-12-08T21:02:48.640Z,1.55
2022-12-08T21:07:51.912Z,2.98
2022-12-08T21:12:54.143Z,3.43
2022-12-08T21:17:56.266Z,3.83
2022-12-08T21:22:58.286Z,2.96
2022-12-08T21:28:00.598Z,0.52
2022-12-08T21:33:02.949Z,2.99
2022-12-08T21:38:06.772Z,1.96
2022-12-08T21:43:08.796Z,2.82
2022-12-08T21:48:11.913Z,1.89
2022-12-08T21:53:14.063Z,1.86
2022-12-08T21:58:16.159Z,1.85
2022-12-08T22:03:18.380Z,2.94
2022-12-08T22:08:20.702Z,0.61
2022-12-08T22:13:22.949Z,-2.75
2022-12-08T22:18:25.449Z,1.25
2022-12-08T22:23:28.829Z,-0.29
2022-12-08T22:28:36.970Z,-1.01
2022-12-08T22:33:40.403Z,0.84
2022-12-08T22:38:42.530Z,1.66
2022-12-08T22:43:45.419Z,2.15
2022-12-08T22:48:48.247Z,1.06
2022-12-08T22:53:51.105Z,2.26
2022-12-08T22:58:53.339Z,1.70
2022-12-08T23:03:56.031Z,-3.16
2022-12-08T23:08:58.552Z,-0.35
2022-12-08T23:14:01.072Z,-1.39
2022-12-08T23:19:03.167Z,0.33
2022-12-08T23:24:05.665Z,-0.00
2022-12-08T23:29:07.725Z,0.82
2022-12-08T23:34:10.823Z,1.01
2022-12-08T23:39:13.223Z,1.10
2022-12-08T23:44:15.377Z,2.30
2022-12-08T23:49:17.618Z,0.41
2022-12-08T23:54:19.673Z,0.96
2022-12-08T23:59:22.133Z,2.04
